Grand Race — 3FZH9 — position and weather

sailwx.info

Track history (hours):
 
Tides and Currents Weather Stations Pressure Air Temp Water Temp Dewpoint Dewpoint Depression Visibility Wind Speed Wind Dir Waves Ship Positions

Grand Race

Last reported at 2017-Sep-16 08:32 UTC. Time now 2017-Sep-25 11:25 UTC.
Position N 39°05' W 124°23'.
Warning: this ship's position is 9 days out of date.

Length 179.2 m; beam 32.3 m.

Type: Cargo ship. MMSI: 357983000.

Date/timePositionNaut miles runAvg speedWind from/ knotsBaromVisibWave heightAir tempDewpointWater temp
2017-Sep-16 08:32N 39°05' W 124°23'415.1
2017-Sep-16 08:18N 39°03' W 124°20'415.3
2017-Sep-16 08:00N 38°59' W 124°16'815.7
2017-Sep-16 07:30N 38°53' W 124°09'816.0
2017-Sep-16 07:00N 38°47' W 124°03'816.0
2017-Sep-16 06:30N 38°41' W 123°56'815.8
2017-Sep-16 06:00N 38°35' W 123°49'815.9
2017-Sep-16 05:30N 38°29' W 123°42'815.8
2017-Sep-16 05:00N 38°23' W 123°36'816.0
2017-Sep-16 04:30N 38°18' W 123°29'815.9
2017-Sep-16 04:00N 38°11' W 123°22'815.4
2017-Sep-16 03:30N 38°05' W 123°16'815.9
2017-Sep-16 03:00N 37°59' W 123°10'815.9
2017-Sep-16 02:30N 37°56' W 123°01'816.0
2017-Sep-16 02:00N 37°52' W 122°52'815.2
2017-Sep-16 01:30N 37°47' W 122°44'510.8
2017-Sep-16 01:00N 37°46' W 122°37'612.3
2017-Sep-16 00:30N 37°49' W 122°30'510.8
2017-Sep-16 00:00N 37°52' W 122°25'3 5.6
2017-Sep-15 23:30N 37°54' W 122°23'1 2.4
2017-Sep-15 22:59N 37°54' W 122°22'0 0.0
2017-Sep-15 22:29N 37°54' W 122°22'0 0.0
2017-Sep-15 21:59N 37°54' W 122°22'0 0.0
2017-Sep-15 21:29N 37°54' W 122°22'0 0.0
2017-Sep-15 20:59N 37°54' W 122°22'0 0.0
2017-Sep-15 20:29N 37°54' W 122°22'0 0.0
2017-Sep-15 19:59N 37°54' W 122°22'0 0.0
2017-Sep-15 19:29N 37°54' W 122°22'0 0.0
2017-Sep-15 18:59N 37°54' W 122°22'0 0.0
2017-Sep-15 18:29N 37°54' W 122°22'0 0.0
2017-Sep-15 17:59N 37°54' W 122°22'0 0.0
2017-Sep-15 17:29N 37°54' W 122°22'0 0.0
2017-Sep-15 16:59N 37°54' W 122°22'0 0.0
2017-Sep-15 16:26N 37°54' W 122°22'0 0.0
2017-Sep-15 15:59N 37°54' W 122°22'0 0.0
2017-Sep-15 15:29N 37°54' W 122°22'0 0.0
2017-Sep-15 14:59N 37°54' W 122°22'0 0.0
2017-Sep-15 14:29N 37°54' W 122°22'0 0.0
2017-Sep-15 13:59N 37°54' W 122°22'0 0.0
2017-Sep-15 13:29N 37°54' W 122°22'0 0.0
2017-Sep-15 12:59N 37°54' W 122°22'0 0.0
2017-Sep-15 12:29N 37°54' W 122°22'0 0.0
2017-Sep-15 11:59N 37°54' W 122°22'0 0.0
2017-Sep-15 11:29N 37°54' W 122°22'0 0.0
2017-Sep-15 10:59N 37°54' W 122°22'0 0.0
2017-Sep-15 10:29N 37°54' W 122°22'0 0.0
2017-Sep-15 09:59N 37°54' W 122°22'0 0.0
2017-Sep-15 09:29N 37°54' W 122°22'0 0.0
2017-Sep-15 08:59N 37°54' W 122°22'0 0.0
2017-Sep-15 08:31N 37°54' W 122°22'1 2.9
2017-Sep-15 08:00N 37°54' W 122°24'2 4.0
2017-Sep-15 07:31N 37°53' W 122°25'611.5
2017-Sep-15 07:00N 37°48' W 122°30'612.1
2017-Sep-15 06:30N 37°46' W 122°37'4 8.6
2017-Sep-15 06:00N 37°43' W 122°40'611.8
2017-Sep-15 05:30N 37°37' W 122°40'714.5
2017-Sep-15 05:00N 37°30' W 122°40'714.6
2017-Sep-15 04:30N 37°22' W 122°40'714.6
2017-Sep-15 04:00N 37°15' W 122°40'714.5
2017-Sep-15 03:30N 37°08' W 122°38'815.3
2017-Sep-15 03:00N 37°01' W 122°35'815.5
2017-Sep-15 02:30N 36°54' W 122°31'815.7
2017-Sep-15 02:00N 36°46' W 122°27'815.6
2017-Sep-15 01:30N 36°39' W 122°23'815.5
2017-Sep-15 01:00N 36°32' W 122°19'815.4
2017-Sep-15 00:30N 36°25' W 122°16'815.7
2017-Sep-15 00:00N 36°18' W 122°12'815.7
2017-Sep-14 23:30N 36°10' W 122°09'815.4
2017-Sep-14 23:00N 36°03' W 122°06'815.3
2017-Sep-14 22:30N 35°56' W 122°03'815.2
2017-Sep-14 22:00N 35°49' W 122°00'816.0
2017-Sep-14 21:30N 35°41' W 121°57'815.9
2017-Sep-14 21:00N 35°33' W 121°54'815.9
2017-Sep-14 20:30N 35°26' W 121°51'816.2
2017-Sep-14 20:00N 35°18' W 121°48'816.1
2017-Sep-14 19:30N 35°11' W 121°44'816.2
2017-Sep-14 19:00N 35°03' W 121°41'816.2
2017-Sep-14 18:30N 34°55' W 121°38'815.9
2017-Sep-14 18:00N 34°48' W 121°35'816.0
2017-Sep-14 17:30N 34°40' W 121°31'816.3
2017-Sep-14 17:00N 34°33' W 121°28'816.2
2017-Sep-14 16:30N 34°25' W 121°25'816.2
2017-Sep-14 16:00N 34°17' W 121°22'815.9
2017-Sep-14 15:30N 34°10' W 121°19'816.2
2017-Sep-14 15:00N 34°02' W 121°16'816.6
2017-Sep-14 14:30N 33°54' W 121°13'916.3
2017-Sep-14 13:57N 33°46' W 121°08'816.3
2017-Sep-14 13:29N 33°40' W 121°02'816.4
2017-Sep-14 13:00N 33°34' W 120°57'816.3
2017-Sep-14 12:30N 33°27' W 120°51'815.9
2017-Sep-14 12:00N 33°21' W 120°45'815.9
2017-Sep-14 11:30N 33°15' W 120°39'815.9
2017-Sep-14 11:00N 33°08' W 120°33'815.5
2017-Sep-14 10:30N 33°02' W 120°27'915.3
2017-Sep-14 09:53N 32°55' W 120°21'5214.7
2017-Sep-14 06:22N 32°34' W 119°24'616.0
2017-Sep-14 05:59N 32°34' W 119°17'3315.9
2017-Sep-14 03:56N 32°31' W 118°38'815.7
2017-Sep-14 03:27N 32°29' W 118°30'715.6
2017-Sep-14 03:00N 32°29' W 118°21'815.7
2017-Sep-14 02:31N 32°28' W 118°12'816.0
2017-Sep-14 02:00N 32°27' W 118°03'816.0
2017-Sep-14 01:30N 32°28' W 117°53'816.3
2017-Sep-14 01:00N 32°31' W 117°44'816.1
2017-Sep-14 00:30N 32°32' W 117°35'816.1
2017-Sep-14 00:00N 32°34' W 117°25'816.0
2017-Sep-13 23:30N 32°36' W 117°16'510.1
2017-Sep-13 23:00N 32°41' W 117°14'3 6.8
2017-Sep-13 22:30N 32°42' W 117°10'4 8.3
2017-Sep-13 22:00N 32°39' W 117°07'0 0.5
2017-Sep-13 21:30N 32°39' W 117°07'0 0.0
2017-Sep-13 21:00N 32°39' W 117°07'0 0.0
2017-Sep-13 20:30N 32°39' W 117°07'0 0.0
2017-Sep-13 20:00N 32°39' W 117°07'0 0.0
2017-Sep-13 19:30N 32°39' W 117°07'0 0.0
2017-Sep-13 18:54N 32°39' W 117°07'0 0.0
2017-Sep-13 18:30N 32°39' W 117°07'0 0.0
2017-Sep-13 18:00N 32°39' W 117°07'0 0.0
2017-Sep-13 17:30N 32°39' W 117°07'0 0.0
2017-Sep-13 16:54N 32°39' W 117°07'0 0.0
2017-Sep-13 16:30N 32°39' W 117°07'0 0.0
2017-Sep-13 15:57N 32°39' W 117°07'0 0.0
2017-Sep-13 15:30N 32°39' W 117°07'0 0.0
2017-Sep-13 15:00N 32°39' W 117°07'0 0.0
2017-Sep-13 14:30N 32°39' W 117°07'0 0.0
2017-Sep-13 14:00N 32°39' W 117°07'0 0.0
2017-Sep-13 13:30N 32°39' W 117°07'0 0.0
2017-Sep-13 13:00N 32°39' W 117°07'0 0.0
2017-Sep-13 12:30N 32°39' W 117°07'0 0.0
2017-Sep-13 12:00N 32°39' W 117°07'0 0.0
2017-Sep-13 11:27N 32°39' W 117°07'0 0.0
2017-Sep-13 11:00N 32°39' W 117°07'0 0.0
2017-Sep-13 10:30N 32°39' W 117°07'0 0.0
2017-Sep-13 10:00N 32°39' W 117°07'0 0.0
2017-Sep-13 09:30N 32°39' W 117°07'0 0.0
2017-Sep-13 09:00N 32°39' W 117°07'0 0.0
2017-Sep-13 08:30N 32°39' W 117°07'0 0.0
2017-Sep-13 07:57N 32°39' W 117°07'0 0.0
2017-Sep-13 07:30N 32°39' W 117°07'0 0.0
2017-Sep-13 07:00N 32°39' W 117°07'0 0.0
2017-Sep-13 06:30N 32°39' W 117°07'0 0.0
2017-Sep-13 06:00N 32°39' W 117°07'0 0.0
2017-Sep-13 05:30N 32°39' W 117°07'0 0.0
2017-Sep-13 05:00N 32°39' W 117°07'0 0.0
2017-Sep-13 04:30N 32°39' W 117°07'0 0.0
2017-Sep-13 04:00N 32°39' W 117°07'0 0.0
2017-Sep-13 03:24N 32°39' W 117°07'0 0.4
2017-Sep-13 03:01N 32°39' W 117°07'2 3.2
2017-Sep-13 02:31N 32°40' W 117°08'510.0
2017-Sep-13 02:01N 32°43' W 117°13'5 9.6
2017-Sep-13 01:31N 32°38' W 117°14'4 8.6
2017-Sep-13 01:01N 32°36' W 117°18'2 3.3
2017-Sep-13 00:30N 32°37' W 117°20'1 1.3
2017-Sep-13 00:01N 32°37' W 117°21'1 2.8
2017-Sep-12 23:31N 32°36' W 117°20'1 2.0
2017-Sep-12 23:00N 32°35' W 117°19'1 1.9
2017-Sep-12 22:27N 32°36' W 117°20'1 1.4
2017-Sep-12 22:00N 32°36' W 117°20'1 2.7
2017-Sep-12 21:30N 32°35' W 117°19'0 0.4
2017-Sep-12 20:59N 32°35' W 117°19'2 5.2
2017-Sep-12 20:31N 32°33' W 117°20'714.7
2017-Sep-12 20:00N 32°26' W 117°21'815.3
2017-Sep-12 19:30N 32°18' W 117°20'815.3
2017-Sep-12 19:00N 32°11' W 117°18'815.3
2017-Sep-12 18:30N 32°03' W 117°15'815.9
2017-Sep-12 17:59N 31°55' W 117°12'1316.0
2017-Sep-12 17:10N 31°43' W 117°08'616.0
2017-Sep-12 16:49N 31°37' W 117°06'1115.6
2017-Sep-12 16:08N 31°27' W 117°03'2616.2
2017-Sep-12 14:33N 31°03' W 116°55'  
Track history (hours):
 
Tides and Currents Weather Stations Pressure Air Temp Water Temp Dewpoint Dewpoint Depression Visibility Wind Speed Wind Dir Waves Ship Positions

Grand Race

Last reported at 2017-Sep-16 08:32 UTC. Time now 2017-Sep-25 11:25 UTC.
Position N 39°05' W 124°23'.
Warning: this ship's position is 9 days out of date.

Length 179.2 m; beam 32.3 m.

Type: Cargo ship. MMSI: 357983000.

Date/timePositionNaut miles runAvg speedWind from/ knotsBaromVisibWave heightAir tempDewpointWater temp
2017-Sep-16 08:32N 39°05' W 124°23'415.1
2017-Sep-16 08:18N 39°03' W 124°20'415.3
2017-Sep-16 08:00N 38°59' W 124°16'815.7
2017-Sep-16 07:30N 38°53' W 124°09'816.0
2017-Sep-16 07:00N 38°47' W 124°03'816.0
2017-Sep-16 06:30N 38°41' W 123°56'815.8
2017-Sep-16 06:00N 38°35' W 123°49'815.9
2017-Sep-16 05:30N 38°29' W 123°42'815.8
2017-Sep-16 05:00N 38°23' W 123°36'816.0
2017-Sep-16 04:30N 38°18' W 123°29'815.9
2017-Sep-16 04:00N 38°11' W 123°22'815.4
2017-Sep-16 03:30N 38°05' W 123°16'815.9
2017-Sep-16 03:00N 37°59' W 123°10'815.9
2017-Sep-16 02:30N 37°56' W 123°01'816.0
2017-Sep-16 02:00N 37°52' W 122°52'815.2
2017-Sep-16 01:30N 37°47' W 122°44'510.8
2017-Sep-16 01:00N 37°46' W 122°37'612.3
2017-Sep-16 00:30N 37°49' W 122°30'510.8
2017-Sep-16 00:00N 37°52' W 122°25'3 5.6
2017-Sep-15 23:30N 37°54' W 122°23'1 2.4
2017-Sep-15 22:59N 37°54' W 122°22'0 0.0
2017-Sep-15 22:29N 37°54' W 122°22'0 0.0
2017-Sep-15 21:59N 37°54' W 122°22'0 0.0
2017-Sep-15 21:29N 37°54' W 122°22'0 0.0
2017-Sep-15 20:59N 37°54' W 122°22'0 0.0
2017-Sep-15 20:29N 37°54' W 122°22'0 0.0
2017-Sep-15 19:59N 37°54' W 122°22'0 0.0
2017-Sep-15 19:29N 37°54' W 122°22'0 0.0
2017-Sep-15 18:59N 37°54' W 122°22'0 0.0
2017-Sep-15 18:29N 37°54' W 122°22'0 0.0
2017-Sep-15 17:59N 37°54' W 122°22'0 0.0
2017-Sep-15 17:29N 37°54' W 122°22'0 0.0
2017-Sep-15 16:59N 37°54' W 122°22'0 0.0
2017-Sep-15 16:26N 37°54' W 122°22'0 0.0
2017-Sep-15 15:59N 37°54' W 122°22'0 0.0
2017-Sep-15 15:29N 37°54' W 122°22'0 0.0
2017-Sep-15 14:59N 37°54' W 122°22'0 0.0
2017-Sep-15 14:29N 37°54' W 122°22'0 0.0
2017-Sep-15 13:59N 37°54' W 122°22'0 0.0
2017-Sep-15 13:29N 37°54' W 122°22'0 0.0
2017-Sep-15 12:59N 37°54' W 122°22'0 0.0
2017-Sep-15 12:29N 37°54' W 122°22'0 0.0
2017-Sep-15 11:59N 37°54' W 122°22'0 0.0
2017-Sep-15 11:29N 37°54' W 122°22'0 0.0
2017-Sep-15 10:59N 37°54' W 122°22'0 0.0
2017-Sep-15 10:29N 37°54' W 122°22'0 0.0
2017-Sep-15 09:59N 37°54' W 122°22'0 0.0
2017-Sep-15 09:29N 37°54' W 122°22'0 0.0
2017-Sep-15 08:59N 37°54' W 122°22'0 0.0
2017-Sep-15 08:31N 37°54' W 122°22'1 2.9
2017-Sep-15 08:00N 37°54' W 122°24'2 4.0
2017-Sep-15 07:31N 37°53' W 122°25'611.5
2017-Sep-15 07:00N 37°48' W 122°30'612.1
2017-Sep-15 06:30N 37°46' W 122°37'4 8.6
2017-Sep-15 06:00N 37°43' W 122°40'611.8
2017-Sep-15 05:30N 37°37' W 122°40'714.5
2017-Sep-15 05:00N 37°30' W 122°40'714.6
2017-Sep-15 04:30N 37°22' W 122°40'714.6
2017-Sep-15 04:00N 37°15' W 122°40'714.5
2017-Sep-15 03:30N 37°08' W 122°38'815.3
2017-Sep-15 03:00N 37°01' W 122°35'815.5
2017-Sep-15 02:30N 36°54' W 122°31'815.7
2017-Sep-15 02:00N 36°46' W 122°27'815.6
2017-Sep-15 01:30N 36°39' W 122°23'815.5
2017-Sep-15 01:00N 36°32' W 122°19'815.4
2017-Sep-15 00:30N 36°25' W 122°16'815.7
2017-Sep-15 00:00N 36°18' W 122°12'815.7
2017-Sep-14 23:30N 36°10' W 122°09'815.4
2017-Sep-14 23:00N 36°03' W 122°06'815.3
2017-Sep-14 22:30N 35°56' W 122°03'815.2
2017-Sep-14 22:00N 35°49' W 122°00'816.0
2017-Sep-14 21:30N 35°41' W 121°57'815.9
2017-Sep-14 21:00N 35°33' W 121°54'815.9
2017-Sep-14 20:30N 35°26' W 121°51'816.2
2017-Sep-14 20:00N 35°18' W 121°48'816.1
2017-Sep-14 19:30N 35°11' W 121°44'816.2
2017-Sep-14 19:00N 35°03' W 121°41'816.2
2017-Sep-14 18:30N 34°55' W 121°38'815.9
2017-Sep-14 18:00N 34°48' W 121°35'816.0
2017-Sep-14 17:30N 34°40' W 121°31'816.3
2017-Sep-14 17:00N 34°33' W 121°28'816.2
2017-Sep-14 16:30N 34°25' W 121°25'816.2
2017-Sep-14 16:00N 34°17' W 121°22'815.9
2017-Sep-14 15:30N 34°10' W 121°19'816.2
2017-Sep-14 15:00N 34°02' W 121°16'816.6
2017-Sep-14 14:30N 33°54' W 121°13'916.3
2017-Sep-14 13:57N 33°46' W 121°08'816.3
2017-Sep-14 13:29N 33°40' W 121°02'816.4
2017-Sep-14 13:00N 33°34' W 120°57'816.3
2017-Sep-14 12:30N 33°27' W 120°51'815.9
2017-Sep-14 12:00N 33°21' W 120°45'815.9
2017-Sep-14 11:30N 33°15' W 120°39'815.9
2017-Sep-14 11:00N 33°08' W 120°33'815.5
2017-Sep-14 10:30N 33°02' W 120°27'915.3
2017-Sep-14 09:53N 32°55' W 120°21'5214.7
2017-Sep-14 06:22N 32°34' W 119°24'616.0
2017-Sep-14 05:59N 32°34' W 119°17'3315.9
2017-Sep-14 03:56N 32°31' W 118°38'815.7
2017-Sep-14 03:27N 32°29' W 118°30'715.6
2017-Sep-14 03:00N 32°29' W 118°21'815.7
2017-Sep-14 02:31N 32°28' W 118°12'816.0
2017-Sep-14 02:00N 32°27' W 118°03'816.0
2017-Sep-14 01:30N 32°28' W 117°53'816.3
2017-Sep-14 01:00N 32°31' W 117°44'816.1
2017-Sep-14 00:30N 32°32' W 117°35'816.1
2017-Sep-14 00:00N 32°34' W 117°25'816.0
2017-Sep-13 23:30N 32°36' W 117°16'510.1
2017-Sep-13 23:00N 32°41' W 117°14'3 6.8
2017-Sep-13 22:30N 32°42' W 117°10'4 8.3
2017-Sep-13 22:00N 32°39' W 117°07'0 0.5
2017-Sep-13 21:30N 32°39' W 117°07'0 0.0
2017-Sep-13 21:00N 32°39' W 117°07'0 0.0
2017-Sep-13 20:30N 32°39' W 117°07'0 0.0
2017-Sep-13 20:00N 32°39' W 117°07'0 0.0
2017-Sep-13 19:30N 32°39' W 117°07'0 0.0
2017-Sep-13 18:54N 32°39' W 117°07'0 0.0
2017-Sep-13 18:30N 32°39' W 117°07'0 0.0
2017-Sep-13 18:00N 32°39' W 117°07'0 0.0
2017-Sep-13 17:30N 32°39' W 117°07'0 0.0
2017-Sep-13 16:54N 32°39' W 117°07'0 0.0
2017-Sep-13 16:30N 32°39' W 117°07'0 0.0
2017-Sep-13 15:57N 32°39' W 117°07'0 0.0
2017-Sep-13 15:30N 32°39' W 117°07'0 0.0
2017-Sep-13 15:00N 32°39' W 117°07'0 0.0
2017-Sep-13 14:30N 32°39' W 117°07'0 0.0
2017-Sep-13 14:00N 32°39' W 117°07'0 0.0
2017-Sep-13 13:30N 32°39' W 117°07'0 0.0
2017-Sep-13 13:00N 32°39' W 117°07'0 0.0
2017-Sep-13 12:30N 32°39' W 117°07'0 0.0
2017-Sep-13 12:00N 32°39' W 117°07'0 0.0
2017-Sep-13 11:27N 32°39' W 117°07'0 0.0
2017-Sep-13 11:00N 32°39' W 117°07'0 0.0
2017-Sep-13 10:30N 32°39' W 117°07'0 0.0
2017-Sep-13 10:00N 32°39' W 117°07'0 0.0
2017-Sep-13 09:30N 32°39' W 117°07'0 0.0
2017-Sep-13 09:00N 32°39' W 117°07'0 0.0
2017-Sep-13 08:30N 32°39' W 117°07'0 0.0
2017-Sep-13 07:57N 32°39' W 117°07'0 0.0
2017-Sep-13 07:30N 32°39' W 117°07'0 0.0
2017-Sep-13 07:00N 32°39' W 117°07'0 0.0
2017-Sep-13 06:30N 32°39' W 117°07'0 0.0
2017-Sep-13 06:00N 32°39' W 117°07'0 0.0
2017-Sep-13 05:30N 32°39' W 117°07'0 0.0
2017-Sep-13 05:00N 32°39' W 117°07'0 0.0
2017-Sep-13 04:30N 32°39' W 117°07'0 0.0
2017-Sep-13 04:00N 32°39' W 117°07'0 0.0
2017-Sep-13 03:24N 32°39' W 117°07'0 0.4
2017-Sep-13 03:01N 32°39' W 117°07'2 3.2
2017-Sep-13 02:31N 32°40' W 117°08'510.0
2017-Sep-13 02:01N 32°43' W 117°13'5 9.6
2017-Sep-13 01:31N 32°38' W 117°14'4 8.6
2017-Sep-13 01:01N 32°36' W 117°18'2 3.3
2017-Sep-13 00:30N 32°37' W 117°20'1 1.3
2017-Sep-13 00:01N 32°37' W 117°21'1 2.8
2017-Sep-12 23:31N 32°36' W 117°20'1 2.0
2017-Sep-12 23:00N 32°35' W 117°19'1 1.9
2017-Sep-12 22:27N 32°36' W 117°20'1 1.4
2017-Sep-12 22:00N 32°36' W 117°20'1 2.7
2017-Sep-12 21:30N 32°35' W 117°19'0 0.4
2017-Sep-12 20:59N 32°35' W 117°19'2 5.2
2017-Sep-12 20:31N 32°33' W 117°20'714.7
2017-Sep-12 20:00N 32°26' W 117°21'815.3
2017-Sep-12 19:30N 32°18' W 117°20'815.3
2017-Sep-12 19:00N 32°11' W 117°18'815.3
2017-Sep-12 18:30N 32°03' W 117°15'815.9
2017-Sep-12 17:59N 31°55' W 117°12'1316.0
2017-Sep-12 17:10N 31°43' W 117°08'616.0
2017-Sep-12 16:49N 31°37' W 117°06'1115.6
2017-Sep-12 16:08N 31°27' W 117°03'2616.2
2017-Sep-12 14:33N 31°03' W 116°55'  

Dump ship's entire track history